Shamal Skanor — SIBN — position and weather

sailwx.info

Track history (hours):
 
Tides and Currents Weather Stations Pressure Air Temp Water Temp Dewpoint Dewpoint Depression Visibility Wind Speed Wind Dir Waves Ship Positions

Shamal Skanor

Last reported at 2015-Aug-26 15:33 UTC. Time now 2015-Sep-02 10:36 UTC.
Position N 55°29' E 012°50'.

Length 15 m.

Type: Pleasure craft. MMSI: 265684130.

Date/timePositionNaut miles runAvg speedWind from/ knotsBaromVisibWave heightAir tempDewpointWater temp
2015-Aug-26 15:33N 55°29' E 012°50'6 6.4
2015-Aug-26 14:33N 55°35' E 012°54'  
2015-Aug-22 15:31N 55°35' E 012°55'3 3.1
2015-Aug-22 14:32N 55°33' E 012°51'1 1.0
2015-Aug-22 13:33N 55°32' E 012°51'34 0.7
2015-Aug-20 12:33N 54°59' E 012°35'7 6.7
2015-Aug-20 11:30N 55°06' E 012°39'6 6.2
2015-Aug-20 10:30N 55°12' E 012°41'13 6.6
2015-Aug-20 08:28N 55°25' E 012°49'  
Track history (hours):
 
Tides and Currents Weather Stations Pressure Air Temp Water Temp Dewpoint Dewpoint Depression Visibility Wind Speed Wind Dir Waves Ship Positions

Shamal Skanor

Last reported at 2015-Aug-26 15:33 UTC. Time now 2015-Sep-02 10:36 UTC.
Position N 55°29' E 012°50'.

Length 15 m.

Type: Pleasure craft. MMSI: 265684130.

Date/timePositionNaut miles runAvg speedWind from/ knotsBaromVisibWave heightAir tempDewpointWater temp
2015-Aug-26 15:33N 55°29' E 012°50'6 6.4
2015-Aug-26 14:33N 55°35' E 012°54'  
2015-Aug-22 15:31N 55°35' E 012°55'3 3.1
2015-Aug-22 14:32N 55°33' E 012°51'1 1.0
2015-Aug-22 13:33N 55°32' E 012°51'34 0.7
2015-Aug-20 12:33N 54°59' E 012°35'7 6.7
2015-Aug-20 11:30N 55°06' E 012°39'6 6.2
2015-Aug-20 10:30N 55°12' E 012°41'13 6.6
2015-Aug-20 08:28N 55°25' E 012°49'  

Dump ship's entire track history